Time;durP1;ratioP1;P1;durP2;ratioP2;P2;SDS_P1;SDS_P2;PMS_P1;PMS_P2;Temp;Humidity;BMP_temperature;BMP_pressure;BME280_temperature;BME280_humidity;BME280_pressure;Samples;Min_cycle;Max_cycle;Signal;HPM_P1;HPM_P2
2021/11/14 00:04:13;;;;;;;44.13;31.55;;;;;;;5.79;83.77;100258.25;10419372;28;20053;-76
2021/11/14 00:09:16;;;;;;;55.67;33.75;;;;;;;5.91;82.56;100264.25;10419083;28;20045;-76
2021/11/14 00:14:18;;;;;;;51.83;32.63;;;;;;;5.51;84.36;100272.41;10400445;28;20046;-76
2021/11/14 00:19:19;;;;;;;48.33;32.45;;;;;;;5.57;84.89;100267.97;10419163;28;20052;-76
2021/11/14 00:24:21;;;;;;;50.70;32.83;;;;;;;5.67;84.51;100271.41;10400400;28;20060;-75
2021/11/14 00:29:22;;;;;;;47.10;33.70;;;;;;;5.42;84.92;100273.31;10419304;28;20414;-75
2021/11/14 00:34:24;;;;;;;47.13;31.40;;;;;;;5.32;85.85;100267.31;10418061;28;20037;-75
2021/11/14 00:39:26;;;;;;;38.50;31.45;;;;;;;5.48;85.54;100273.28;10417903;28;20045;-75
2021/11/14 00:44:28;;;;;;;46.50;33.05;;;;;;;5.61;84.83;100278.41;10400113;28;20068;-75
2021/11/14 00:49:30;;;;;;;45.67;32.25;;;;;;;5.56;85.03;100278.44;10417399;28;20417;-75
2021/11/14 00:54:31;;;;;;;49.60;33.03;;;;;;;5.57;84.92;100287.97;10417058;28;20053;-75
2021/11/14 00:59:33;;;;;;;53.95;35.17;;;;;;;5.46;85.75;100293.28;10399108;28;20045;-76
2021/11/14 01:04:35;;;;;;;49.55;33.10;;;;;;;5.39;86.13;100294.19;10416787;28;20092;-76
2021/11/14 01:09:39;;;;;;;52.20;35.08;;;;;;;5.36;86.09;100289.03;10399740;28;20446;-76
2021/11/14 01:14:41;;;;;;;54.05;35.28;;;;;;;5.37;86.31;100295.09;10399442;28;20498;-75
2021/11/14 01:19:43;;;;;;;50.65;31.33;;;;;;;5.28;86.94;100298.63;10398871;28;20064;-76
2021/11/14 01:24:44;;;;;;;52.80;34.67;;;;;;;5.50;86.08;100294.13;10398360;28;20569;-76
2021/11/14 01:29:47;;;;;;;58.80;35.38;;;;;;;5.61;85.54;100300.13;10415363;28;20041;-76
2021/11/14 01:34:49;;;;;;;51.92;33.92;;;;;;;5.63;85.12;100295.78;10398010;28;20057;-76
2021/11/14 01:39:50;;;;;;;43.67;33.20;;;;;;;5.41;86.07;100296.81;10397384;28;20049;-75
2021/11/14 01:44:52;;;;;;;53.35;34.67;;;;;;;5.47;85.92;100295.00;10415274;28;20064;-76
2021/11/14 01:49:54;;;;;;;45.25;32.72;;;;;;;5.58;84.85;100300.16;10397724;28;20084;-76
2021/11/14 01:54:55;;;;;;;46.90;32.63;;;;;;;5.35;86.00;100304.66;10415801;28;20050;-76
2021/11/14 01:59:57;;;;;;;49.20;35.25;;;;;;;5.40;86.34;100308.97;10415281;28;20045;-75
2021/11/14 02:04:59;;;;;;;57.00;33.95;;;;;;;5.37;86.43;100301.16;10414925;28;20050;-75
2021/11/14 02:10:04;;;;;;;52.08;33.78;;;;;;;5.40;86.63;100308.97;10397312;28;20065;-76
2021/11/14 02:15:06;;;;;;;58.22;36.65;;;;;;;5.05;88.04;100303.97;10414914;28;20049;-76
2021/11/14 02:20:10;;;;;;;54.65;36.38;;;;;;;5.11;88.10;100303.06;10398138;28;20107;-76
2021/11/14 02:25:15;;;;;;;53.60;36.45;;;;;;;4.95;88.30;100303.13;10414811;28;20050;-76
2021/11/14 02:30:20;;;;;;;57.67;36.30;;;;;;;4.98;88.94;100313.53;10414487;28;20063;-76
2021/11/14 02:35:24;;;;;;;53.40;36.85;;;;;;;5.36;87.73;100314.19;10414872;28;20050;-75
2021/11/14 02:40:25;;;;;;;54.35;36.60;;;;;;;5.18;88.56;100315.16;10419181;28;20041;-76
2021/11/14 02:45:27;;;;;;;56.28;35.13;;;;;;;4.90;89.82;100324.88;10422561;28;20107;-76
2021/11/14 02:50:30;;;;;;;51.85;35.53;;;;;;;4.94;90.15;100331.78;10404352;28;20049;-76
2021/11/14 02:55:32;;;;;;;61.80;37.70;;;;;;;4.91;90.41;100327.44;10404051;28;20053;-76
2021/11/14 03:01:00;;;;;;;50.92;34.25;;;;;;;4.98;90.20;100323.09;10421681;28;20103;-76
2021/11/14 03:06:04;;;;;;;53.22;34.83;;;;;;;4.99;90.37;100332.63;10403870;28;20034;-75
2021/11/14 03:11:06;;;;;;;45.47;32.35;;;;;;;5.10;90.02;100337.81;10403738;28;20054;-76
2021/11/14 03:16:11;;;;;;;46.53;33.67;;;;;;;5.21;89.27;100347.28;10420741;28;20104;-76
2021/11/14 03:21:13;;;;;;;55.80;35.47;;;;;;;5.34;89.54;100348.09;10402682;28;20545;-76
2021/11/14 03:26:14;;;;;;;52.97;35.00;;;;;;;5.24;89.80;100356.84;10402791;28;20487;-77
2021/11/14 03:31:16;;;;;;;58.60;36.05;;;;;;;5.18;90.23;100359.47;10402375;28;20038;-75
2021/11/14 03:36:18;;;;;;;57.97;35.72;;;;;;;5.07;90.43;100362.13;10402651;28;20045;-74
2021/11/14 03:41:27;;;;;;;52.63;35.83;;;;;;;5.43;89.60;100363.69;10420141;28;20041;-76
2021/11/14 03:46:30;;;;;;;58.45;35.40;;;;;;;5.35;89.08;100373.28;10420518;28;20049;-76
2021/11/14 03:51:32;;;;;;;58.80;36.13;;;;;;;5.21;89.51;100373.34;10419680;28;20107;-77
2021/11/14 03:56:34;;;;;;;56.85;35.50;;;;;;;5.04;90.59;100378.63;10401741;28;20060;-77
2021/11/14 04:01:36;;;;;;;57.50;34.65;;;;;;;5.34;90.07;100382.00;10419251;28;20042;-77
2021/11/14 04:06:38;;;;;;;50.78;34.63;;;;;;;5.29;88.99;100381.16;10401173;28;20128;-75
2021/11/14 04:11:40;;;;;;;51.97;34.83;;;;;;;5.02;90.88;100392.56;10418492;28;20052;-75
2021/11/14 04:16:41;;;;;;;62.90;36.85;;;;;;;5.13;91.37;100392.50;10418369;28;20095;-76
2021/11/14 04:21:43;;;;;;;62.08;36.95;;;;;;;5.15;91.15;100401.19;10418779;28;20388;-75
2021/11/14 04:26:45;;;;;;;57.28;35.80;;;;;;;4.95;91.90;100396.91;10419452;28;20131;-76
2021/11/14 04:31:46;;;;;;;60.45;37.05;;;;;;;4.99;91.68;100409.06;10400926;28;20049;-76
2021/11/14 04:36:48;;;;;;;63.03;37.30;;;;;;;4.75;92.03;100411.75;10418072;28;20136;-76
2021/11/14 04:41:49;;;;;;;54.80;34.35;;;;;;;4.58;92.87;100409.16;10400116;28;20041;-75
2021/11/14 04:46:52;;;;;;;57.28;36.47;;;;;;;4.52;93.13;100410.03;10417340;28;20045;-77
2021/11/14 04:51:53;;;;;;;55.75;35.40;;;;;;;4.40;92.90;100417.84;10417175;28;20387;-77
2021/11/14 04:56:55;;;;;;;59.97;36.22;;;;;;;4.41;93.02;100418.72;10399344;28;20414;-77
2021/11/14 05:01:56;;;;;;;51.45;33.80;;;;;;;4.28;93.01;100436.94;10416366;28;20041;-76
2021/11/14 05:06:59;;;;;;;56.53;34.67;;;;;;;4.23;93.20;100430.00;10416932;28;20068;-77
2021/11/14 05:12:00;;;;;;;57.60;34.63;;;;;;;4.42;92.27;100433.47;10416626;28;20450;-77
2021/11/14 05:17:02;;;;;;;54.88;34.67;;;;;;;4.04;92.12;100443.00;10416780;28;20049;-77
2021/11/14 05:22:04;;;;;;;63.63;37.05;;;;;;;4.00;93.32;100448.19;10398654;28;20038;-77
2021/11/14 05:27:06;;;;;;;54.47;33.13;;;;;;;4.15;92.78;100443.00;10416503;28;20049;-76
2021/11/14 05:32:08;;;;;;;59.80;35.53;;;;;;;4.23;91.49;100448.22;10416264;28;20053;-77
2021/11/14 05:37:10;;;;;;;52.30;33.92;;;;;;;3.98;91.83;100452.50;10416051;28;20056;-77
2021/11/14 05:42:12;;;;;;;53.47;33.67;;;;;;;3.75;93.23;100458.53;10398284;28;20038;-76
2021/11/14 05:47:14;;;;;;;55.80;35.08;;;;;;;3.55;94.32;100468.00;10381654;28;20049;-74
2021/11/14 05:52:15;;;;;;;59.80;33.83;;;;;;;3.69;93.89;100473.25;10416164;28;20044;-74
2021/11/14 05:57:17;;;;;;;58.28;35.05;;;;;;;3.63;93.38;100466.31;10416537;28;20045;-74
2021/11/14 06:02:40;;;;;;;49.35;32.25;;;;;;;3.36;94.07;100482.63;10415629;28;20061;-74
2021/11/14 06:07:44;;;;;;;55.00;33.75;;;;;;;3.51;93.96;100485.31;10416050;28;20069;-73
2021/11/14 06:12:48;;;;;;;57.58;33.17;;;;;;;3.60;93.02;100494.03;10415768;28;20037;-73
2021/11/14 06:17:50;;;;;;;61.67;33.58;;;;;;;3.78;92.05;100497.53;10405743;28;20058;-73
2021/11/14 06:22:51;;;;;;;62.78;35.08;;;;;;;3.75;91.99;100504.47;10406250;28;20120;-73
2021/11/14 06:27:53;;;;;;;56.00;33.60;;;;;;;3.34;93.12;100525.94;10405791;28;20057;-73
2021/11/14 06:32:55;;;;;;;60.05;35.65;;;;;;;3.27;95.05;100529.38;10406253;28;20103;-73
2021/11/14 06:37:57;;;;;;;64.72;36.50;;;;;;;3.31;95.15;100536.31;10423648;28;20473;-73
2021/11/14 06:42:58;;;;;;;57.80;33.13;;;;;;;3.19;93.89;100555.31;10405930;28;20060;-73
2021/11/14 06:48:00;;;;;;;61.97;33.00;;;;;;;3.08;95.18;100564.75;10423652;28;20042;-73
2021/11/14 06:53:02;;;;;;;63.58;35.65;;;;;;;3.20;94.84;100566.56;10423014;28;20041;-73
2021/11/14 06:58:04;;;;;;;61.53;34.88;;;;;;;3.23;94.66;100577.88;10423144;28;20454;-73
2021/11/14 07:03:05;;;;;;;54.38;32.53;;;;;;;3.04;95.04;100582.03;10423159;28;20042;-74
2021/11/14 07:08:08;;;;;;;54.78;32.90;;;;;;;3.17;94.34;100595.13;10405017;28;20049;-74
2021/11/14 07:13:10;;;;;;;54.95;32.03;;;;;;;3.17;94.55;100593.38;10423074;28;20034;-73
2021/11/14 07:18:11;;;;;;;64.40;34.72;;;;;;;3.21;94.69;100599.47;10422365;28;20045;-74
2021/11/14 07:23:13;;;;;;;56.50;33.30;;;;;;;3.31;94.69;100608.22;10421559;28;20037;-74
2021/11/14 07:28:15;;;;;;;58.05;32.15;;;;;;;3.26;94.62;100603.84;10421934;28;20099;-73
2021/11/14 07:33:16;;;;;;;56.15;34.17;;;;;;;3.29;95.29;100616.88;10421725;28;20041;-73
2021/11/14 07:38:18;;;;;;;52.83;31.95;;;;;;;3.34;95.64;100614.31;10421307;28;20056;-72
2021/11/14 07:43:19;;;;;;;57.20;32.90;;;;;;;3.38;95.62;100617.78;10420979;28;20037;-73
2021/11/14 07:48:21;;;;;;;59.65;34.78;;;;;;;3.54;96.15;100623.09;10421057;28;20095;-73
2021/11/14 07:53:23;;;;;;;63.55;35.05;;;;;;;3.75;96.36;100624.06;10420737;28;20380;-73
2021/11/14 07:58:25;;;;;;;69.88;36.22;;;;;;;3.95;96.06;100629.38;10421506;28;20060;-74
2021/11/14 08:03:31;;;;;;;63.30;35.63;;;;;;;4.14;96.42;100643.34;10421164;28;20388;-74
2021/11/14 08:08:33;;;;;;;53.30;32.90;;;;;;;4.42;96.49;100644.28;10421710;28;20049;-73
2021/11/14 08:13:34;;;;;;;58.35;35.40;;;;;;;4.66;96.83;100646.13;10419834;28;20287;-73
2021/11/14 08:18:36;;;;;;;67.60;39.40;;;;;;;5.02;96.46;100650.50;10420869;28;20050;-73
2021/11/14 08:23:37;;;;;;;59.58;36.47;;;;;;;5.35;94.48;100660.03;10420033;28;20193;-73
2021/11/14 08:28:39;;;;;;;53.50;34.60;;;;;;;5.51;93.29;100666.13;10418838;28;20128;-72
2021/11/14 08:33:41;;;;;;;45.22;32.05;;;;;;;6.01;90.16;100673.00;10418024;28;20049;-73
2021/11/14 08:38:43;;;;;;;44.90;31.27;;;;;;;5.92;89.92;100686.94;10417082;28;20557;-74
2021/11/14 08:43:45;;;;;;;44.25;30.80;;;;;;;6.21;89.39;100686.88;10418178;28;20049;-74
2021/11/14 08:48:46;;;;;;;38.90;28.90;;;;;;;6.49;87.49;100686.75;10418060;28;20103;-74
2021/11/14 08:53:48;;;;;;;40.88;30.48;;;;;;;6.46;86.83;100700.72;10417534;28;20049;-74
2021/11/14 08:58:49;;;;;;;35.63;29.73;;;;;;;6.51;86.61;100695.47;10418385;28;20103;-73
2021/11/14 09:03:51;;;;;;;34.22;29.65;;;;;;;6.50;87.08;100697.19;10399526;28;20097;-73
2021/11/14 09:08:54;;;;;;;44.38;30.45;;;;;;;6.36;88.52;100709.44;10416882;28;20553;-73
2021/11/14 09:13:55;;;;;;;98.65;59.13;;;;;;;6.43;88.34;100707.69;10416687;28;20085;-74
2021/11/14 09:18:58;;;;;;;43.88;32.38;;;;;;;6.35;88.21;100717.28;10417561;28;20159;-73
2021/11/14 09:24:00;;;;;;;38.03;30.20;;;;;;;6.60;87.65;100715.44;10416594;28;20045;-73
2021/11/14 09:29:01;;;;;;;38.72;30.05;;;;;;;6.66;86.77;100724.13;10416209;28;20049;-73
2021/11/14 09:34:04;;;;;;;40.65;29.60;;;;;;;6.92;84.55;100725.72;10416150;28;20483;-73
2021/11/14 09:39:11;;;;;;;33.92;30.00;;;;;;;6.95;84.25;100728.31;10415850;28;20049;-73
2021/11/14 09:44:16;;;;;;;41.05;30.10;;;;;;;7.11;82.98;100723.88;10417358;28;20049;-73
2021/11/14 09:49:20;;;;;;;41.47;30.58;;;;;;;7.21;82.97;100736.84;10416511;28;20050;-72
2021/11/14 09:54:23;;;;;;;43.67;31.65;;;;;;;6.99;83.74;100724.78;10415887;28;20045;-73
2021/11/14 09:59:25;;;;;;;35.70;29.35;;;;;;;6.94;85.42;100732.66;10415723;28;20103;-73
2021/11/14 10:04:27;;;;;;;34.85;29.08;;;;;;;6.99;86.15;100735.25;10415566;28;20399;-72
2021/11/14 10:09:35;;;;;;;34.75;30.23;;;;;;;7.01;85.72;100747.44;10415240;28;20053;-74
2021/11/14 10:14:38;;;;;;;37.67;30.45;;;;;;;7.10;86.21;100737.81;10416036;28;20045;-73
2021/11/14 10:19:39;;;;;;;32.15;28.65;;;;;;;7.40;84.26;100737.63;10415345;28;20388;-73
2021/11/14 10:24:41;;;;;;;38.67;30.85;;;;;;;7.45;82.96;100740.19;10397278;28;20503;-73
2021/11/14 10:29:48;;;;;;;32.85;28.70;;;;;;;7.41;82.53;100735.84;10414460;28;20045;-73
2021/11/14 10:34:57;;;;;;;37.38;30.52;;;;;;;7.63;83.38;100733.94;10414811;28;20095;-73
2021/11/14 10:40:02;;;;;;;28.38;25.55;;;;;;;7.53;83.03;100743.63;10414712;28;20049;-74
2021/11/14 10:45:04;;;;;;;30.90;27.25;;;;;;;7.74;81.95;100738.19;10397090;28;20446;-74
2021/11/14 10:50:10;;;;;;;34.50;28.05;;;;;;;7.97;81.63;100739.72;10396565;28;20049;-73
2021/11/14 10:55:12;;;;;;;30.92;27.63;;;;;;;7.99;82.00;100741.44;10397001;28;20450;-74
2021/11/14 11:00:14;;;;;;;30.40;27.13;;;;;;;8.07;80.84;100733.53;10399436;28;20049;-73
2021/11/14 11:05:19;;;;;;;36.33;29.02;;;;;;;8.22;79.71;100743.81;10422097;28;20072;-74
2021/11/14 11:10:24;;;;;;;34.72;28.50;;;;;;;8.34;79.19;100743.69;10421299;28;20045;-73
2021/11/14 11:15:26;;;;;;;32.05;28.48;;;;;;;8.69;78.35;100745.06;10421404;28;20488;-73
2021/11/14 11:20:29;;;;;;;30.90;27.73;;;;;;;8.69;78.07;100744.19;10421886;28;20041;-74
2021/11/14 11:25:32;;;;;;;30.33;26.77;;;;;;;8.43;80.08;100747.13;10416949;28;20046;-74
2021/11/14 11:30:40;;;;;;;30.60;27.50;;;;;;;8.44;78.74;100752.34;10402048;28;20049;-74
2021/11/14 11:35:47;;;;;;;33.75;29.20;;;;;;;8.46;79.59;100752.34;10399429;28;20125;-74
2021/11/14 11:40:48;;;;;;;33.13;28.83;;;;;;;8.42;79.98;100756.75;10346626;28;20495;-74
2021/11/14 11:45:52;;;;;;;35.78;28.23;;;;;;;8.34;80.64;100755.94;10413199;28;20046;-74
2021/11/14 11:51:06;;;;;;;30.67;27.48;;;;;;;8.56;79.53;100746.09;10419988;28;20037;-74
2021/11/14 11:56:10;;;;;;;34.55;27.45;;;;;;;8.55;80.43;100745.22;10379396;28;20050;-74
2021/11/14 12:01:23;;;;;;;30.30;26.98;;;;;;;8.78;78.94;100749.31;10377908;28;20045;-75
2021/11/14 12:06:29;;;;;;;32.88;28.83;;;;;;;8.87;78.24;100746.56;10378888;28;20057;-75
2021/11/14 12:11:34;;;;;;;33.22;28.80;;;;;;;8.75;78.73;100751.97;10379222;28;20041;-75
2021/11/14 12:16:36;;;;;;;33.55;28.10;;;;;;;8.50;80.34;100764.50;10379598;28;20057;-74
2021/11/14 12:21:37;;;;;;;33.60;29.17;;;;;;;8.52;80.13;100768.84;10378002;28;20546;-74
2021/11/14 12:26:39;;;;;;;31.15;27.42;;;;;;;8.51;80.52;100774.13;10377662;28;20108;-76
2021/11/14 12:31:49;;;;;;;31.45;27.98;;;;;;;8.66;80.21;100767.81;10378367;28;20518;-75
2021/11/14 12:37:04;;;;;;;29.00;26.17;;;;;;;8.54;80.47;100768.81;10378547;28;20120;-74
2021/11/14 12:42:10;;;;;;;30.38;27.25;;;;;;;8.48;80.96;100776.75;10360422;28;20054;-74
2021/11/14 12:47:41;;;;;;;31.33;27.38;;;;;;;8.50;81.53;100780.22;10377463;28;20042;-73
2021/11/14 12:52:49;;;;;;;31.35;28.20;;;;;;;8.57;81.22;100782.75;10378218;28;20384;-75
2021/11/14 12:57:58;;;;;;;31.27;28.00;;;;;;;8.59;80.89;100786.25;10359143;28;20053;-75
2021/11/14 13:03:00;;;;;;;29.88;27.05;;;;;;;8.56;80.75;100788.03;10359201;28;20046;-74
2021/11/14 13:08:02;;;;;;;31.27;28.15;;;;;;;8.44;81.54;100793.41;10374266;28;20046;-75
2021/11/14 13:13:04;;;;;;;32.35;28.98;;;;;;;8.33;82.98;100796.97;10357764;28;20041;-75
2021/11/14 13:18:06;;;;;;;43.47;33.88;;;;;;;8.48;82.68;100797.72;10375183;28;20064;-75
2021/11/14 13:23:09;;;;;;;28.92;25.85;;;;;;;8.62;80.71;100792.31;10375244;28;20053;-75
2021/11/14 13:28:11;;;;;;;25.08;22.40;;;;;;;8.81;80.24;100799.97;10374917;28;20056;-73
2021/11/14 13:33:15;;;;;;;26.60;24.08;;;;;;;8.46;81.61;100804.75;10374745;28;20046;-75
2021/11/14 13:38:17;;;;;;;26.83;24.55;;;;;;;8.71;80.43;100797.44;10375134;28;20469;-75
2021/11/14 13:43:18;;;;;;;28.25;25.52;;;;;;;8.50;80.88;100798.56;10374809;28;20092;-74
2021/11/14 13:48:21;;;;;;;31.38;22.98;;;;;;;8.24;83.47;100799.69;10374401;28;20083;-75
2021/11/14 13:53:25;;;;;;;25.88;23.55;;;;;;;8.42;81.56;100801.28;10374262;28;20132;-75
2021/11/14 13:58:45;;;;;;;28.15;25.30;;;;;;;8.40;82.16;100813.50;10374406;28;20054;-73
2021/11/14 14:03:50;;;;;;;23.42;21.33;;;;;;;8.71;80.80;100808.81;10374649;28;20073;-75
2021/11/14 14:08:53;;;;;;;26.13;23.92;;;;;;;8.53;81.30;100812.50;10375420;28;20050;-74
2021/11/14 14:13:57;;;;;;;27.10;24.75;;;;;;;8.58;81.40;100825.56;10358050;28;20050;-75
2021/11/14 14:18:59;;;;;;;30.50;27.15;;;;;;;8.50;81.97;100830.00;10374175;28;20077;-74
2021/11/14 14:24:03;;;;;;;38.17;29.55;;;;;;;8.41;82.92;100843.19;10374946;28;20046;-73
2021/11/14 14:29:09;;;;;;;36.10;29.52;;;;;;;8.71;81.46;100842.00;10375114;28;20411;-73
2021/11/14 14:34:19;;;;;;;32.20;28.77;;;;;;;8.45;82.44;100853.63;10374452;28;20128;-73
2021/11/14 14:39:21;;;;;;;34.10;29.92;;;;;;;8.47;82.88;100851.88;10423331;28;20037;-72
2021/11/14 14:44:29;;;;;;;27.67;25.00;;;;;;;8.41;82.60;100851.94;10386660;28;20455;-72
2021/11/14 14:49:51;;;;;;;25.75;23.50;;;;;;;8.48;81.92;100855.38;10393010;28;20050;-73
2021/11/14 14:54:53;;;;;;;24.35;21.92;;;;;;;8.56;80.98;100856.16;10423250;28;20491;-73
2021/11/14 14:59:57;;;;;;;23.52;21.33;;;;;;;8.55;80.86;100862.28;10422003;28;20064;-72
2021/11/14 15:04:59;;;;;;;18.23;16.63;;;;;;;8.53;80.78;100870.16;10421808;28;20053;-74
2021/11/14 15:10:08;;;;;;;20.50;18.90;;;;;;;8.30;81.83;100880.81;10420584;28;20103;-73
2021/11/14 15:15:15;;;;;;;19.70;18.20;;;;;;;8.39;81.53;100872.03;10421561;28;20053;-74
2021/11/14 15:20:24;;;;;;;22.23;20.40;;;;;;;8.24;82.08;100882.63;10400233;28;20046;-76
2021/11/14 15:25:29;;;;;;;22.50;20.45;;;;;;;8.33;82.65;100887.78;10400976;28;20044;-75
2021/11/14 15:30:38;;;;;;;25.35;22.85;;;;;;;8.37;82.88;100889.53;10392269;28;20132;-75
2021/11/14 15:35:40;;;;;;;24.80;22.65;;;;;;;8.14;83.66;100901.91;10348512;28;20086;-74
2021/11/14 15:40:43;;;;;;;29.77;26.40;;;;;;;7.97;84.43;100905.53;10417637;28;20042;-75
2021/11/14 15:45:45;;;;;;;27.67;25.13;;;;;;;7.96;84.15;100911.63;10419506;28;20050;-76
2021/11/14 15:50:53;;;;;;;27.40;24.97;;;;;;;8.00;82.99;100915.09;10403185;28;20051;-74
2021/11/14 15:55:57;;;;;;;28.25;25.60;;;;;;;7.96;83.21;100921.25;10418064;28;20296;-75
2021/11/14 16:01:00;;;;;;;27.75;25.15;;;;;;;7.87;83.61;100922.16;10420626;28;20057;-74
2021/11/14 16:06:02;;;;;;;26.90;24.50;;;;;;;8.00;83.44;100917.72;10403106;28;20095;-74
2021/11/14 16:11:03;;;;;;;26.83;24.50;;;;;;;7.80;83.91;100931.81;10419897;28;20170;-75
2021/11/14 16:16:06;;;;;;;28.50;26.10;;;;;;;7.89;83.23;100935.28;10401602;28;20168;-73
2021/11/14 16:21:09;;;;;;;28.45;25.48;;;;;;;7.77;83.36;100941.44;10402495;28;20072;-74
2021/11/14 16:26:11;;;;;;;27.83;25.45;;;;;;;7.69;84.28;100945.84;10420043;28;20454;-75
2021/11/14 16:31:13;;;;;;;27.20;24.85;;;;;;;7.76;83.87;100944.94;10420007;28;20037;-74
2021/11/14 16:36:17;;;;;;;28.65;25.67;;;;;;;7.82;83.79;100952.75;10416211;28;20045;-74
2021/11/14 16:41:18;;;;;;;27.30;25.10;;;;;;;7.69;84.29;100958.94;10419663;28;20041;-74
2021/11/14 16:46:24;;;;;;;26.38;24.13;;;;;;;7.57;84.80;100965.09;10398380;28;20435;-74
2021/11/14 16:51:26;;;;;;;25.05;22.95;;;;;;;7.55;84.87;100965.09;10419262;28;20080;-75
2021/11/14 16:56:28;;;;;;;25.33;23.17;;;;;;;7.58;84.94;100980.78;10399557;28;20119;-73
2021/11/14 17:01:30;;;;;;;26.80;24.38;;;;;;;7.35;85.80;100987.88;10419644;28;20095;-74
2021/11/14 17:06:32;;;;;;;24.52;22.50;;;;;;;7.48;85.12;100984.34;10419959;28;20149;-74
2021/11/14 17:11:34;;;;;;;24.08;22.17;;;;;;;7.27;86.27;100985.25;10402706;28;20152;-75
2021/11/14 17:16:36;;;;;;;24.52;22.63;;;;;;;7.23;86.73;100995.75;10415621;28;20158;-76
2021/11/14 17:21:38;;;;;;;26.00;23.80;;;;;;;7.38;85.92;100995.69;10417013;28;20091;-75
2021/11/14 17:26:39;;;;;;;24.17;22.35;;;;;;;7.45;85.22;101005.25;10417034;28;20056;-75
2021/11/14 17:31:41;;;;;;;24.63;22.42;;;;;;;7.47;85.42;101006.09;10416695;28;20041;-75
2021/11/14 17:36:43;;;;;;;26.88;24.50;;;;;;;7.48;85.19;101006.97;10415097;28;20045;-75
2021/11/14 17:41:45;;;;;;;29.58;26.92;;;;;;;7.50;85.17;101013.97;10416497;28;20389;-73
2021/11/14 17:46:47;;;;;;;27.27;24.65;;;;;;;7.50;84.93;101018.31;10399260;28;20454;-75
2021/11/14 17:51:50;;;;;;;28.38;25.70;;;;;;;7.28;86.08;101021.00;10412718;28;20360;-74
2021/11/14 17:56:51;;;;;;;26.77;24.67;;;;;;;7.43;85.44;101024.44;10398109;28;20057;-75
2021/11/14 18:01:53;;;;;;;28.92;26.10;;;;;;;7.32;85.78;101020.13;10409807;28;20441;-76
2021/11/14 18:06:54;;;;;;;28.65;26.10;;;;;;;7.25;86.36;101025.34;10399556;28;20056;-74
2021/11/14 18:11:56;;;;;;;27.35;24.70;;;;;;;7.33;85.80;101026.22;10411981;28;20049;-75
2021/11/14 18:16:58;;;;;;;24.90;22.80;;;;;;;7.35;85.21;101032.34;10430835;28;20051;-75
2021/11/14 18:22:00;;;;;;;27.92;25.38;;;;;;;7.28;85.80;101033.22;10411308;28;20041;-75
2021/11/14 18:27:03;;;;;;;27.33;25.08;;;;;;;7.17;86.28;101033.25;10411858;28;20128;-75
2021/11/14 18:32:06;;;;;;;29.50;26.20;;;;;;;7.03;86.43;101035.84;10411451;28;20045;-75
2021/11/14 18:37:09;;;;;;;33.13;28.00;;;;;;;7.12;86.35;101049.78;10394362;28;20049;-75
2021/11/14 18:42:10;;;;;;;26.42;23.73;;;;;;;7.17;86.30;101054.16;10411334;28;20048;-75
2021/11/14 18:47:12;;;;;;;26.65;24.13;;;;;;;7.07;85.85;101050.66;10428599;28;20052;-75
2021/11/14 18:52:14;;;;;;;37.35;29.67;;;;;;;7.17;86.47;101055.88;10428261;28;20056;-74
2021/11/14 18:57:17;;;;;;;33.80;30.38;;;;;;;7.36;85.59;101051.50;10428185;28;20045;-74
2021/11/14 19:02:18;;;;;;;41.28;33.95;;;;;;;7.03;87.63;101054.16;10428105;28;20047;-76
2021/11/14 19:07:20;;;;;;;46.55;35.17;;;;;;;6.94;89.47;101059.38;10427272;28;20510;-74
2021/11/14 19:12:21;;;;;;;58.25;38.05;;;;;;;6.82;90.73;101062.03;10396037;28;20050;-74
2021/11/14 19:17:23;;;;;;;54.42;37.53;;;;;;;6.98;89.94;101062.88;10384232;28;20077;-75
2021/11/14 19:22:25;;;;;;;60.83;39.72;;;;;;;6.91;91.01;101069.88;10363295;28;20104;-75
2021/11/14 19:27:32;;;;;;;54.22;38.60;;;;;;;6.79;92.18;101077.69;10380424;28;20531;-75
2021/11/14 19:32:34;;;;;;;61.05;39.13;;;;;;;6.83;92.10;101072.47;10362474;28;20042;-74
2021/11/14 19:37:35;;;;;;;61.17;39.92;;;;;;;6.73;91.93;101078.59;10361908;28;20129;-75
2021/11/14 19:42:37;;;;;;;67.70;39.78;;;;;;;6.74;92.10;101082.94;10346137;28;20515;-74
2021/11/14 19:47:39;;;;;;;67.57;38.80;;;;;;;6.61;93.65;101086.41;10379626;28;20104;-75
2021/11/14 19:52:44;;;;;;;71.03;41.60;;;;;;;6.46;94.83;101088.97;10361110;28;20473;-75
2021/11/14 19:57:45;;;;;;;74.10;41.22;;;;;;;6.57;94.13;101085.50;10361158;28;20579;-75
2021/11/14 20:02:48;;;;;;;67.72;39.92;;;;;;;6.52;94.98;101083.78;10378110;28;20045;-74
2021/11/14 20:07:53;;;;;;;70.05;39.22;;;;;;;6.54;95.07;101079.41;10377990;28;20107;-75
2021/11/14 20:13:01;;;;;;;64.38;38.42;;;;;;;6.48;95.20;101088.13;10378364;28;20042;-74
2021/11/14 20:18:07;;;;;;;71.03;38.92;;;;;;;6.46;95.83;101088.97;10360214;28;20045;-74
2021/11/14 20:23:10;;;;;;;65.97;38.42;;;;;;;6.35;96.44;101094.19;10378326;28;20038;-74
2021/11/14 20:28:12;;;;;;;71.90;40.75;;;;;;;6.25;98.03;101088.06;10378468;28;20108;-74
2021/11/14 20:33:14;;;;;;;71.30;38.47;;;;;;;6.56;95.97;101091.63;10376819;28;20084;-75
2021/11/14 20:38:16;;;;;;;61.33;36.15;;;;;;;6.42;96.08;101088.13;10359868;28;20045;-74
2021/11/14 20:43:23;;;;;;;67.53;36.15;;;;;;;6.67;96.09;101085.53;10377168;28;20046;-74
2021/11/14 20:48:26;;;;;;;65.63;37.10;;;;;;;6.45;96.48;101093.31;10361091;28;20096;-75
2021/11/14 20:53:28;;;;;;;67.90;35.83;;;;;;;6.64;96.13;101085.50;10347287;28;20496;-74
2021/11/14 20:58:30;;;;;;;56.13;32.83;;;;;;;6.49;95.95;101092.47;10377109;28;20054;-74
2021/11/14 21:03:32;;;;;;;55.15;33.30;;;;;;;6.50;96.16;101093.34;10377569;28;20038;-74
2021/11/14 21:08:33;;;;;;;57.78;33.80;;;;;;;6.60;95.46;101088.97;10376991;28;20049;-75
2021/11/14 21:13:35;;;;;;;55.05;31.75;;;;;;;6.58;95.98;101086.38;10375924;28;20046;-75
2021/11/14 21:18:38;;;;;;;58.95;34.00;;;;;;;6.46;96.54;101087.25;10359464;28;20042;-74
2021/11/14 21:23:40;;;;;;;53.28;31.90;;;;;;;6.32;97.73;101086.31;10375245;28;20054;-74
2021/11/14 21:28:42;;;;;;;57.10;33.10;;;;;;;6.28;98.38;101089.81;10375142;28;20084;-75
2021/11/14 21:38:48;;;;;;;46.30;29.77;;;;;;;6.34;97.60;101092.44;10374685;28;20073;-75
2021/11/14 21:43:50;;;;;;;42.10;29.65;;;;;;;6.46;97.74;101086.34;10374254;28;20424;-75
2021/11/14 21:48:52;;;;;;;43.72;29.20;;;;;;;6.50;97.91;101091.59;10340796;28;20048;-75
2021/11/14 21:53:53;;;;;;;41.85;29.88;;;;;;;6.57;96.35;101101.19;10374879;28;20470;-75
2021/11/14 21:58:55;;;;;;;35.08;27.67;;;;;;;6.68;95.96;101097.72;10374033;28;20495;-75
2021/11/14 22:03:57;;;;;;;35.53;26.80;;;;;;;6.50;96.87;101101.16;10373819;28;20388;-76
2021/11/14 22:08:58;;;;;;;36.65;27.42;;;;;;;6.48;95.64;101103.78;10373865;28;20045;-74
2021/11/14 22:14:00;;;;;;;32.72;27.08;;;;;;;6.59;95.79;101106.41;10374400;28;20562;-75
2021/11/14 22:19:02;;;;;;;41.10;27.73;;;;;;;6.41;95.99;101109.84;10356512;28;20455;-74
2021/11/14 22:24:04;;;;;;;40.92;28.95;;;;;;;6.51;94.01;101111.63;10373637;28;20041;-74
2021/11/14 22:29:06;;;;;;;37.25;27.83;;;;;;;6.48;93.28;101119.47;10374265;28;20512;-74
2021/11/14 22:34:08;;;;;;;48.63;31.38;;;;;;;6.43;92.94;101128.16;10373839;28;20042;-76
2021/11/14 22:39:11;;;;;;;51.75;32.25;;;;;;;6.33;93.13;101127.28;10373796;28;20404;-74
2021/11/14 22:44:13;;;;;;;53.33;33.25;;;;;;;6.28;93.36;101136.81;10356740;28;20439;-75
2021/11/14 22:49:19;;;;;;;64.65;35.63;;;;;;;6.24;92.59;101127.22;10356017;28;20388;-75
2021/11/14 22:54:22;;;;;;;63.17;36.70;;;;;;;6.09;93.62;101129.78;10374051;28;20462;-75
2021/11/14 22:59:24;;;;;;;56.97;34.35;;;;;;;6.15;92.71;101129.78;10363263;28;20100;-74
2021/11/14 23:04:27;;;;;;;60.25;36.85;;;;;;;6.26;92.28;101134.19;10381473;28;20381;-74